sensor_id;sensor_type;location;lat;lon;timestamp;noise_LAeq;noise_LA_min;noise_LA_max;noise_LA01;noise_LA95
58303;Laerm;44109;52.398;7.024;2022-11-22T00:00:41;51.44;37.43;76.53;;
58303;Laerm;44109;52.398;7.024;2022-11-22T00:03:09;51.80;33.89;85.13;;
58303;Laerm;44109;52.398;7.024;2022-11-22T00:05:37;50.67;32.42;81.81;;
58303;Laerm;44109;52.398;7.024;2022-11-22T00:08:06;58.05;32.48;93.13;;
58303;Laerm;44109;52.398;7.024;2022-11-22T00:10:34;44.21;31.86;62.96;;
58303;Laerm;44109;52.398;7.024;2022-11-22T00:13:02;44.40;31.87;62.01;;
58303;Laerm;44109;52.398;7.024;2022-11-22T00:15:30;43.88;32.00;60.98;;
58303;Laerm;44109;52.398;7.024;2022-11-22T00:17:58;44.58;32.19;62.97;;
58303;Laerm;44109;52.398;7.024;2022-11-22T00:20:26;47.61;32.39;77.13;;
58303;Laerm;44109;52.398;7.024;2022-11-22T00:22:55;46.12;32.56;72.77;;
58303;Laerm;44109;52.398;7.024;2022-11-22T00:25:25;44.82;31.98;64.26;;
58303;Laerm;44109;52.398;7.024;2022-11-22T00:27:52;44.87;32.54;66.32;;
58303;Laerm;44109;52.398;7.024;2022-11-22T00:30:20;44.74;32.50;67.17;;
58303;Laerm;44109;52.398;7.024;2022-11-22T00:32:48;43.98;31.84;60.77;;
58303;Laerm;44109;52.398;7.024;2022-11-22T00:35:15;44.00;31.81;59.20;;
58303;Laerm;44109;52.398;7.024;2022-11-22T00:37:43;43.92;32.05;56.80;;
58303;Laerm;44109;52.398;7.024;2022-11-22T00:40:11;44.17;32.07;60.90;;
58303;Laerm;44109;52.398;7.024;2022-11-22T00:42:40;47.91;33.68;78.49;;
58303;Laerm;44109;52.398;7.024;2022-11-22T00:45:08;49.49;35.15;77.94;;
58303;Laerm;44109;52.398;7.024;2022-11-22T00:47:36;48.49;34.89;72.81;;
58303;Laerm;44109;52.398;7.024;2022-11-22T00:50:05;60.60;35.30;96.38;;
58303;Laerm;44109;52.398;7.024;2022-11-22T00:52:33;54.18;37.84;88.44;;
58303;Laerm;44109;52.398;7.024;2022-11-22T00:55:00;55.07;33.65;88.74;;
58303;Laerm;44109;52.398;7.024;2022-11-22T00:57:28;49.58;31.92;83.10;;
58303;Laerm;44109;52.398;7.024;2022-11-22T00:59:57;45.28;31.95;69.34;;
58303;Laerm;44109;52.398;7.024;2022-11-22T01:02:24;62.21;31.99;95.52;;
58303;Laerm;44109;52.398;7.024;2022-11-22T01:04:52;44.69;31.87;63.25;;
58303;Laerm;44109;52.398;7.024;2022-11-22T01:07:19;44.33;32.09;62.30;;
58303;Laerm;44109;52.398;7.024;2022-11-22T01:09:47;44.40;32.08;59.77;;
58303;Laerm;44109;52.398;7.024;2022-11-22T01:12:14;45.21;31.64;63.43;;
58303;Laerm;44109;52.398;7.024;2022-11-22T01:14:42;45.21;32.01;71.44;;
58303;Laerm;44109;52.398;7.024;2022-11-22T01:17:11;44.10;31.30;58.38;;
58303;Laerm;44109;52.398;7.024;2022-11-22T01:19:39;44.18;31.52;57.27;;
58303;Laerm;44109;52.398;7.024;2022-11-22T01:22:06;55.14;32.05;90.95;;
58303;Laerm;44109;52.398;7.024;2022-11-22T01:24:34;44.54;32.22;57.13;;
58303;Laerm;44109;52.398;7.024;2022-11-22T01:27:01;43.94;31.46;57.28;;
58303;Laerm;44109;52.398;7.024;2022-11-22T01:29:29;44.11;31.38;57.33;;
58303;Laerm;44109;52.398;7.024;2022-11-22T01:31:56;44.43;31.82;57.65;;
58303;Laerm;44109;52.398;7.024;2022-11-22T01:34:25;43.96;31.43;56.98;;
58303;Laerm;44109;52.398;7.024;2022-11-22T01:36:53;44.05;31.74;57.10;;
58303;Laerm;44109;52.398;7.024;2022-11-22T01:39:20;44.49;32.01;67.57;;
58303;Laerm;44109;52.398;7.024;2022-11-22T01:41:48;45.18;32.82;70.57;;
58303;Laerm;44109;52.398;7.024;2022-11-22T01:44:21;45.00;33.12;67.22;;
58303;Laerm;44109;52.398;7.024;2022-11-22T01:46:53;44.52;32.64;64.44;;
58303;Laerm;44109;52.398;7.024;2022-11-22T01:49:28;44.47;32.59;66.42;;
58303;Laerm;44109;52.398;7.024;2022-11-22T01:52:03;44.35;32.10;67.58;;
58303;Laerm;44109;52.398;7.024;2022-11-22T01:54:37;46.09;32.50;73.10;;
58303;Laerm;44109;52.398;7.024;2022-11-22T01:57:08;43.11;32.86;71.98;;
58303;Laerm;44109;52.398;7.024;2022-11-22T01:59:43;44.03;32.12;65.50;;
58303;Laerm;44109;52.398;7.024;2022-11-22T02:02:13;44.41;31.17;61.17;;
58303;Laerm;44109;52.398;7.024;2022-11-22T02:04:43;50.98;34.21;77.25;;
58303;Laerm;44109;52.398;7.024;2022-11-22T02:07:18;54.21;40.93;80.06;;
58303;Laerm;44109;52.398;7.024;2022-11-22T02:09:50;51.77;34.38;79.69;;
58303;Laerm;44109;52.398;7.024;2022-11-22T02:12:22;52.77;34.48;87.37;;
58303;Laerm;44109;52.398;7.024;2022-11-22T02:14:53;50.75;37.27;76.24;;
58303;Laerm;44109;52.398;7.024;2022-11-22T02:17:24;54.69;37.56;85.21;;
58303;Laerm;44109;52.398;7.024;2022-11-22T02:19:54;49.13;35.83;73.12;;
58303;Laerm;44109;52.398;7.024;2022-11-22T02:22:30;47.84;34.44;70.92;;
58303;Laerm;44109;52.398;7.024;2022-11-22T02:25:06;47.95;34.57;74.46;;
58303;Laerm;44109;52.398;7.024;2022-11-22T02:27:39;51.72;37.14;80.42;;
58303;Laerm;44109;52.398;7.024;2022-11-22T02:30:08;52.59;36.93;79.38;;
58303;Laerm;44109;52.398;7.024;2022-11-22T02:32:36;47.09;34.14;72.31;;
58303;Laerm;44109;52.398;7.024;2022-11-22T02:35:17;52.58;33.01;86.17;;
58303;Laerm;44109;52.398;7.024;2022-11-22T02:37:47;64.78;45.10;95.35;;
58303;Laerm;44109;52.398;7.024;2022-11-22T02:40:17;56.09;43.41;80.75;;
58303;Laerm;44109;52.398;7.024;2022-11-22T02:42:51;61.27;37.91;94.28;;
58303;Laerm;44109;52.398;7.024;2022-11-22T02:45:21;52.34;37.56;84.62;;
58303;Laerm;44109;52.398;7.024;2022-11-22T02:47:49;60.90;39.84;96.02;;
58303;Laerm;44109;52.398;7.024;2022-11-22T02:50:17;53.09;37.79;84.56;;
58303;Laerm;44109;52.398;7.024;2022-11-22T02:52:44;47.31;33.60;73.82;;
58303;Laerm;44109;52.398;7.024;2022-11-22T02:55:12;44.92;32.30;69.39;;
58303;Laerm;44109;52.398;7.024;2022-11-22T02:57:39;44.98;31.85;66.21;;
58303;Laerm;44109;52.398;7.024;2022-11-22T03:00:11;45.32;31.64;73.87;;
58303;Laerm;44109;52.398;7.024;2022-11-22T03:02:38;44.57;31.66;61.97;;
58303;Laerm;44109;52.398;7.024;2022-11-22T03:05:07;55.49;32.20;91.32;;
58303;Laerm;44109;52.398;7.024;2022-11-22T03:07:34;45.77;32.14;64.78;;
58303;Laerm;44109;52.398;7.024;2022-11-22T03:10:03;44.52;31.96;62.39;;
58303;Laerm;44109;52.398;7.024;2022-11-22T03:12:30;44.58;31.62;56.92;;
58303;Laerm;44109;52.398;7.024;2022-11-22T03:14:58;45.27;31.60;57.06;;
58303;Laerm;44109;52.398;7.024;2022-11-22T03:17:27;45.08;31.54;61.68;;
58303;Laerm;44109;52.398;7.024;2022-11-22T03:19:54;44.22;31.76;56.32;;
58303;Laerm;44109;52.398;7.024;2022-11-22T03:22:22;44.25;31.32;57.14;;
58303;Laerm;44109;52.398;7.024;2022-11-22T03:24:49;44.36;31.56;57.08;;
58303;Laerm;44109;52.398;7.024;2022-11-22T03:27:17;45.78;32.52;71.41;;
58303;Laerm;44109;52.398;7.024;2022-11-22T03:29:44;44.84;31.76;56.23;;
58303;Laerm;44109;52.398;7.024;2022-11-22T03:32:12;44.39;31.73;60.08;;
58303;Laerm;44109;52.398;7.024;2022-11-22T03:34:41;44.37;31.58;57.21;;
58303;Laerm;44109;52.398;7.024;2022-11-22T03:37:08;50.66;31.82;84.57;;
58303;Laerm;44109;52.398;7.024;2022-11-22T03:39:36;46.24;32.10;57.77;;
58303;Laerm;44109;52.398;7.024;2022-11-22T03:42:04;44.90;32.06;56.52;;
58303;Laerm;44109;52.398;7.024;2022-11-22T03:44:31;45.15;31.83;57.12;;
58303;Laerm;44109;52.398;7.024;2022-11-22T03:46:59;44.59;31.59;57.18;;
58303;Laerm;44109;52.398;7.024;2022-11-22T03:49:26;45.43;31.97;57.24;;
58303;Laerm;44109;52.398;7.024;2022-11-22T03:51:55;59.28;32.59;95.31;;
58303;Laerm;44109;52.398;7.024;2022-11-22T03:54:22;44.57;31.30;57.42;;
58303;Laerm;44109;52.398;7.024;2022-11-22T03:56:50;44.89;31.69;56.93;;
58303;Laerm;44109;52.398;7.024;2022-11-22T03:59:17;46.23;34.46;57.09;;
58303;Laerm;44109;52.398;7.024;2022-11-22T04:01:45;47.93;33.11;59.56;;
58303;Laerm;44109;52.398;7.024;2022-11-22T04:04:12;45.04;31.66;56.96;;
58303;Laerm;44109;52.398;7.024;2022-11-22T04:06:40;44.94;31.65;57.06;;
58303;Laerm;44109;52.398;7.024;2022-11-22T04:09:09;45.29;32.07;57.09;;
58303;Laerm;44109;52.398;7.024;2022-11-22T04:11:37;45.85;33.02;57.29;;
58303;Laerm;44109;52.398;7.024;2022-11-22T04:14:05;45.48;33.46;57.22;;
58303;Laerm;44109;52.398;7.024;2022-11-22T04:16:50;49.10;34.71;61.93;;
58303;Laerm;44109;52.398;7.024;2022-11-22T04:19:18;45.42;32.36;58.38;;
58303;Laerm;44109;52.398;7.024;2022-11-22T04:21:45;45.30;32.04;57.03;;
58303;Laerm;44109;52.398;7.024;2022-11-22T04:24:13;46.56;34.01;57.05;;
58303;Laerm;44109;52.398;7.024;2022-11-22T04:26:58;45.68;33.20;56.87;;
58303;Laerm;44109;52.398;7.024;2022-11-22T04:29:26;46.60;36.29;62.13;;
58303;Laerm;44109;52.398;7.024;2022-11-22T04:31:53;48.16;37.55;57.07;;
58303;Laerm;44109;52.398;7.024;2022-11-22T04:34:39;45.72;33.26;57.11;;
58303;Laerm;44109;52.398;7.024;2022-11-22T04:37:06;47.04;36.77;57.17;;
58303;Laerm;44109;52.398;7.024;2022-11-22T04:39:35;46.60;35.32;57.05;;
58303;Laerm;44109;52.398;7.024;2022-11-22T04:42:03;47.03;34.64;57.16;;
58303;Laerm;44109;52.398;7.024;2022-11-22T04:44:49;46.77;37.33;57.61;;
58303;Laerm;44109;52.398;7.024;2022-11-22T04:47:17;46.80;34.28;57.81;;
58303;Laerm;44109;52.398;7.024;2022-11-22T04:49:59;45.59;35.82;56.82;;
58303;Laerm;44109;52.398;7.024;2022-11-22T04:52:26;44.20;31.91;56.89;;
58303;Laerm;44109;52.398;7.024;2022-11-22T04:55:15;45.46;32.88;57.26;;
58303;Laerm;44109;52.398;7.024;2022-11-22T04:57:42;46.50;33.20;56.72;;
58303;Laerm;44109;52.398;7.024;2022-11-22T05:00:11;47.09;32.99;59.02;;
58303;Laerm;44109;52.398;7.024;2022-11-22T05:02:38;45.25;32.48;59.32;;
58303;Laerm;44109;52.398;7.024;2022-11-22T05:05:07;44.70;33.09;57.23;;
58303;Laerm;44109;52.398;7.024;2022-11-22T05:07:35;46.73;33.22;57.78;;
58303;Laerm;44109;52.398;7.024;2022-11-22T05:10:03;45.92;34.81;56.60;;
58303;Laerm;44109;52.398;7.024;2022-11-22T05:12:32;45.46;33.41;56.83;;
58303;Laerm;44109;52.398;7.024;2022-11-22T05:15:00;45.85;34.68;57.09;;
58303;Laerm;44109;52.398;7.024;2022-11-22T05:17:27;46.57;37.99;56.59;;
58303;Laerm;44109;52.398;7.024;2022-11-22T05:19:55;45.94;34.26;57.70;;
58303;Laerm;44109;52.398;7.024;2022-11-22T05:22:25;47.17;36.91;58.25;;
58303;Laerm;44109;52.398;7.024;2022-11-22T05:25:08;46.50;35.97;61.12;;
58303;Laerm;44109;52.398;7.024;2022-11-22T05:27:37;46.29;33.77;57.75;;
58303;Laerm;44109;52.398;7.024;2022-11-22T05:30:06;46.49;35.88;60.14;;
58303;Laerm;44109;52.398;7.024;2022-11-22T05:32:34;47.50;35.87;56.91;;
58303;Laerm;44109;52.398;7.024;2022-11-22T05:35:03;46.68;34.37;71.16;;
58303;Laerm;44109;52.398;7.024;2022-11-22T05:37:31;44.88;33.40;57.13;;
58303;Laerm;44109;52.398;7.024;2022-11-22T05:39:59;48.57;37.56;61.20;;
58303;Laerm;44109;52.398;7.024;2022-11-22T05:42:26;47.67;36.82;56.67;;
58303;Laerm;44109;52.398;7.024;2022-11-22T05:44:55;46.70;38.13;58.62;;
58303;Laerm;44109;52.398;7.024;2022-11-22T05:47:23;46.08;36.61;57.33;;
58303;Laerm;44109;52.398;7.024;2022-11-22T05:49:50;46.89;36.59;61.23;;
58303;Laerm;44109;52.398;7.024;2022-11-22T05:52:18;46.27;37.19;62.29;;
58303;Laerm;44109;52.398;7.024;2022-11-22T05:54:46;46.34;34.59;56.84;;
58303;Laerm;44109;52.398;7.024;2022-11-22T05:57:13;46.59;35.82;57.12;;
58303;Laerm;44109;52.398;7.024;2022-11-22T05:59:41;45.48;34.55;57.04;;
58303;Laerm;44109;52.398;7.024;2022-11-22T06:02:09;46.98;36.89;57.16;;
58303;Laerm;44109;52.398;7.024;2022-11-22T06:04:37;46.89;35.75;56.97;;
58303;Laerm;44109;52.398;7.024;2022-11-22T06:07:05;46.80;36.00;57.22;;
58303;Laerm;44109;52.398;7.024;2022-11-22T06:09:32;48.67;38.24;57.34;;
58303;Laerm;44109;52.398;7.024;2022-11-22T06:12:00;47.16;39.54;66.67;;
58303;Laerm;44109;52.398;7.024;2022-11-22T06:14:27;46.77;36.97;57.41;;
58303;Laerm;44109;52.398;7.024;2022-11-22T06:16:55;46.47;37.32;57.13;;
58303;Laerm;44109;52.398;7.024;2022-11-22T06:19:24;46.97;36.62;57.45;;
58303;Laerm;44109;52.398;7.024;2022-11-22T06:21:51;47.28;38.16;57.49;;
58303;Laerm;44109;52.398;7.024;2022-11-22T06:24:19;47.59;38.87;61.06;;
58303;Laerm;44109;52.398;7.024;2022-11-22T06:26:46;48.68;40.06;60.72;;
58303;Laerm;44109;52.398;7.024;2022-11-22T06:29:14;46.74;37.54;59.59;;
58303;Laerm;44109;52.398;7.024;2022-11-22T06:31:41;48.50;38.31;61.34;;
58303;Laerm;44109;52.398;7.024;2022-11-22T06:34:11;47.18;38.32;56.81;;
58303;Laerm;44109;52.398;7.024;2022-11-22T06:36:40;48.03;40.61;57.31;;
58303;Laerm;44109;52.398;7.024;2022-11-22T06:39:08;48.90;41.62;57.04;;
58303;Laerm;44109;52.398;7.024;2022-11-22T06:41:36;48.08;41.24;57.81;;
58303;Laerm;44109;52.398;7.024;2022-11-22T06:44:06;47.03;37.54;57.58;;
58303;Laerm;44109;52.398;7.024;2022-11-22T06:46:35;47.93;40.47;61.44;;
58303;Laerm;44109;52.398;7.024;2022-11-22T06:49:04;48.97;40.56;65.15;;
58303;Laerm;44109;52.398;7.024;2022-11-22T06:51:32;48.08;41.08;57.30;;
58303;Laerm;44109;52.398;7.024;2022-11-22T06:54:01;50.12;43.08;63.85;;
58303;Laerm;44109;52.398;7.024;2022-11-22T06:56:31;49.10;41.05;65.71;;
58303;Laerm;44109;52.398;7.024;2022-11-22T06:59:04;46.64;38.16;60.57;;
58303;Laerm;44109;52.398;7.024;2022-11-22T07:01:33;48.81;39.88;63.21;;
58303;Laerm;44109;52.398;7.024;2022-11-22T07:04:02;49.80;42.28;66.44;;
58303;Laerm;44109;52.398;7.024;2022-11-22T07:06:32;50.71;41.37;65.53;;
58303;Laerm;44109;52.398;7.024;2022-11-22T07:09:05;51.96;39.18;71.10;;
58303;Laerm;44109;52.398;7.024;2022-11-22T07:11:34;53.74;43.09;70.66;;
58303;Laerm;44109;52.398;7.024;2022-11-22T07:14:03;52.23;41.87;67.83;;
58303;Laerm;44109;52.398;7.024;2022-11-22T07:16:32;52.48;42.16;67.39;;
58303;Laerm;44109;52.398;7.024;2022-11-22T07:18:59;50.18;41.04;70.39;;
58303;Laerm;44109;52.398;7.024;2022-11-22T07:21:27;50.94;42.15;61.89;;
58303;Laerm;44109;52.398;7.024;2022-11-22T07:23:55;46.99;37.61;59.38;;
58303;Laerm;44109;52.398;7.024;2022-11-22T07:26:25;48.46;40.51;62.19;;
58303;Laerm;44109;52.398;7.024;2022-11-22T07:28:53;49.18;41.50;57.55;;
58303;Laerm;44109;52.398;7.024;2022-11-22T07:31:21;47.34;40.91;60.74;;
58303;Laerm;44109;52.398;7.024;2022-11-22T07:33:49;48.79;41.62;57.93;;
58303;Laerm;44109;52.398;7.024;2022-11-22T07:36:19;49.46;40.21;59.36;;
58303;Laerm;44109;52.398;7.024;2022-11-22T07:38:47;48.17;40.09;72.61;;
58303;Laerm;44109;52.398;7.024;2022-11-22T07:41:16;49.84;42.18;68.53;;
58303;Laerm;44109;52.398;7.024;2022-11-22T07:43:45;54.99;41.55;85.92;;
58303;Laerm;44109;52.398;7.024;2022-11-22T07:46:21;50.64;40.26;71.95;;
58303;Laerm;44109;52.398;7.024;2022-11-22T07:48:49;49.26;40.40;64.24;;
58303;Laerm;44109;52.398;7.024;2022-11-22T07:51:18;51.29;42.04;75.32;;
58303;Laerm;44109;52.398;7.024;2022-11-22T07:53:46;48.63;41.34;58.34;;
58303;Laerm;44109;52.398;7.024;2022-11-22T07:56:14;56.09;42.80;74.08;;
58303;Laerm;44109;52.398;7.024;2022-11-22T07:58:42;48.99;41.68;67.93;;
58303;Laerm;44109;52.398;7.024;2022-11-22T08:01:13;49.27;40.07;70.17;;
58303;Laerm;44109;52.398;7.024;2022-11-22T08:03:42;49.34;42.21;66.54;;
58303;Laerm;44109;52.398;7.024;2022-11-22T08:06:11;48.60;40.15;63.51;;
58303;Laerm;44109;52.398;7.024;2022-11-22T08:08:40;48.61;42.04;57.47;;
58303;Laerm;44109;52.398;7.024;2022-11-22T08:11:09;48.70;41.07;59.52;;
58303;Laerm;44109;52.398;7.024;2022-11-22T08:13:37;49.06;39.74;66.46;;
58303;Laerm;44109;52.398;7.024;2022-11-22T08:16:08;48.92;36.28;72.28;;
58303;Laerm;44109;52.398;7.024;2022-11-22T08:18:38;48.12;39.49;63.87;;
58303;Laerm;44109;52.398;7.024;2022-11-22T08:21:09;48.74;39.51;68.55;;
58303;Laerm;44109;52.398;7.024;2022-11-22T08:23:37;47.55;39.83;57.79;;
58303;Laerm;44109;52.398;7.024;2022-11-22T08:26:07;48.38;43.57;57.00;;
58303;Laerm;44109;52.398;7.024;2022-11-22T08:28:36;48.03;39.55;57.79;;
58303;Laerm;44109;52.398;7.024;2022-11-22T08:31:06;48.04;40.64;66.76;;
58303;Laerm;44109;52.398;7.024;2022-11-22T08:33:35;49.25;38.06;59.74;;
58303;Laerm;44109;52.398;7.024;2022-11-22T08:36:05;49.48;39.80;63.18;;
58303;Laerm;44109;52.398;7.024;2022-11-22T08:38:34;49.22;40.94;65.96;;
58303;Laerm;44109;52.398;7.024;2022-11-22T08:41:04;48.67;39.59;68.91;;
58303;Laerm;44109;52.398;7.024;2022-11-22T08:43:31;48.10;37.87;64.04;;
58303;Laerm;44109;52.398;7.024;2022-11-22T08:45:59;47.52;38.72;61.99;;
58303;Laerm;44109;52.398;7.024;2022-11-22T08:48:29;46.27;36.75;58.82;;
58303;Laerm;44109;52.398;7.024;2022-11-22T08:50:59;47.43;39.98;59.58;;
58303;Laerm;44109;52.398;7.024;2022-11-22T08:53:31;46.97;39.44;58.31;;
58303;Laerm;44109;52.398;7.024;2022-11-22T08:56:01;48.45;38.34;66.55;;
58303;Laerm;44109;52.398;7.024;2022-11-22T08:58:30;46.77;37.21;58.38;;
58303;Laerm;44109;52.398;7.024;2022-11-22T09:01:03;47.44;38.79;63.88;;
58303;Laerm;44109;52.398;7.024;2022-11-22T09:03:33;46.99;38.19;58.75;;
58303;Laerm;44109;52.398;7.024;2022-11-22T09:06:02;48.42;38.19;70.33;;
58303;Laerm;44109;52.398;7.024;2022-11-22T09:08:32;47.54;40.77;57.49;;
58303;Laerm;44109;52.398;7.024;2022-11-22T09:11:00;47.53;40.25;57.07;;
58303;Laerm;44109;52.398;7.024;2022-11-22T09:13:28;46.80;36.68;57.44;;
58303;Laerm;44109;52.398;7.024;2022-11-22T09:16:01;47.87;40.14;57.68;;
58303;Laerm;44109;52.398;7.024;2022-11-22T09:18:29;48.21;40.62;61.94;;
58303;Laerm;44109;52.398;7.024;2022-11-22T09:20:57;48.33;40.82;65.69;;
58303;Laerm;44109;52.398;7.024;2022-11-22T09:23:25;48.47;40.41;57.86;;
58303;Laerm;44109;52.398;7.024;2022-11-22T09:26:00;47.98;39.44;66.36;;
58303;Laerm;44109;52.398;7.024;2022-11-22T09:28:28;47.97;41.38;57.77;;
58303;Laerm;44109;52.398;7.024;2022-11-22T09:31:00;48.22;38.57;66.65;;
58303;Laerm;44109;52.398;7.024;2022-11-22T09:33:30;50.14;37.97;66.25;;
58303;Laerm;44109;52.398;7.024;2022-11-22T09:35:59;48.09;38.40;56.31;;
58303;Laerm;44109;52.398;7.024;2022-11-22T09:38:27;48.43;38.98;64.69;;
58303;Laerm;44109;52.398;7.024;2022-11-22T09:40:58;47.71;38.88;62.38;;
58303;Laerm;44109;52.398;7.024;2022-11-22T09:43:40;49.43;40.12;62.79;;
58303;Laerm;44109;52.398;7.024;2022-11-22T09:46:21;47.54;38.81;65.12;;
58303;Laerm;44109;52.398;7.024;2022-11-22T09:49:13;48.09;40.41;62.41;;
58303;Laerm;44109;52.398;7.024;2022-11-22T09:51:52;50.68;41.38;69.14;;
58303;Laerm;44109;52.398;7.024;2022-11-22T09:54:26;49.74;39.86;61.29;;
58303;Laerm;44109;52.398;7.024;2022-11-22T09:57:01;49.93;40.95;66.58;;
58303;Laerm;44109;52.398;7.024;2022-11-22T09:59:34;49.32;39.80;62.71;;
58303;Laerm;44109;52.398;7.024;2022-11-22T10:02:08;50.12;39.87;69.17;;
58303;Laerm;44109;52.398;7.024;2022-11-22T10:04:44;49.12;40.80;66.62;;
58303;Laerm;44109;52.398;7.024;2022-11-22T10:07:21;48.89;38.21;64.68;;
58303;Laerm;44109;52.398;7.024;2022-11-22T10:09:58;50.05;42.30;66.13;;
58303;Laerm;44109;52.398;7.024;2022-11-22T10:12:38;50.40;42.99;60.62;;
58303;Laerm;44109;52.398;7.024;2022-11-22T10:15:21;51.92;41.47;71.94;;
58303;Laerm;44109;52.398;7.024;2022-11-22T10:17:56;48.88;39.22;59.87;;
58303;Laerm;44109;52.398;7.024;2022-11-22T10:20:28;49.23;41.99;61.08;;
58303;Laerm;44109;52.398;7.024;2022-11-22T10:22:57;50.46;42.64;58.70;;
58303;Laerm;44109;52.398;7.024;2022-11-22T10:25:37;49.92;40.26;59.90;;
58303;Laerm;44109;52.398;7.024;2022-11-22T10:28:16;51.72;43.77;71.40;;
58303;Laerm;44109;52.398;7.024;2022-11-22T10:30:54;48.95;42.06;59.56;;
58303;Laerm;44109;52.398;7.024;2022-11-22T10:33:31;50.47;41.19;62.39;;
58303;Laerm;44109;52.398;7.024;2022-11-22T10:36:26;51.08;42.23;66.62;;
58303;Laerm;44109;52.398;7.024;2022-11-22T10:39:33;50.24;44.29;57.59;;
58303;Laerm;44109;52.398;7.024;2022-11-22T10:42:21;50.08;42.51;59.12;;
58303;Laerm;44109;52.398;7.024;2022-11-22T10:45:04;49.50;39.37;61.66;;
58303;Laerm;44109;52.398;7.024;2022-11-22T10:47:48;48.93;39.05;58.44;;
58303;Laerm;44109;52.398;7.024;2022-11-22T10:50:29;48.86;41.77;57.66;;
58303;Laerm;44109;52.398;7.024;2022-11-22T10:53:09;48.97;39.02;61.42;;
58303;Laerm;44109;52.398;7.024;2022-11-22T10:55:51;54.36;40.04;84.03;;
58303;Laerm;44109;52.398;7.024;2022-11-22T10:58:34;49.22;39.75;61.11;;
58303;Laerm;44109;52.398;7.024;2022-11-22T11:01:18;48.32;40.87;65.47;;
58303;Laerm;44109;52.398;7.024;2022-11-22T11:03:56;49.29;41.37;58.39;;
58303;Laerm;44109;52.398;7.024;2022-11-22T11:06:27;49.18;41.25;57.93;;
58303;Laerm;44109;52.398;7.024;2022-11-22T11:09:06;48.79;38.86;62.81;;
58303;Laerm;44109;52.398;7.024;2022-11-22T11:11:40;49.04;38.98;57.85;;
58303;Laerm;44109;52.398;7.024;2022-11-22T11:14:21;48.95;38.84;66.23;;
58303;Laerm;44109;52.398;7.024;2022-11-22T11:16:53;49.58;38.28;62.89;;
58303;Laerm;44109;52.398;7.024;2022-11-22T11:19:24;50.11;40.98;60.04;;
58303;Laerm;44109;52.398;7.024;2022-11-22T11:21:59;49.02;40.55;57.66;;
58303;Laerm;44109;52.398;7.024;2022-11-22T11:24:30;49.30;41.04;66.08;;
58303;Laerm;44109;52.398;7.024;2022-11-22T11:26:59;49.24;39.76;69.01;;
58303;Laerm;44109;52.398;7.024;2022-11-22T11:29:37;50.67;41.83;66.24;;
58303;Laerm;44109;52.398;7.024;2022-11-22T11:32:10;49.78;41.69;61.49;;
58303;Laerm;44109;52.398;7.024;2022-11-22T11:34:43;49.52;39.93;58.10;;
58303;Laerm;44109;52.398;7.024;2022-11-22T11:37:26;51.15;38.10;76.81;;
58303;Laerm;44109;52.398;7.024;2022-11-22T11:39:58;47.99;40.83;57.28;;
58303;Laerm;44109;52.398;7.024;2022-11-22T11:42:28;49.83;42.42;57.90;;
58303;Laerm;44109;52.398;7.024;2022-11-22T11:45:19;49.35;42.30;58.38;;
58303;Laerm;44109;52.398;7.024;2022-11-22T11:47:53;50.37;42.08;71.31;;
58303;Laerm;44109;52.398;7.024;2022-11-22T11:50:24;49.47;40.87;59.68;;
58303;Laerm;44109;52.398;7.024;2022-11-22T11:52:55;49.45;40.62;58.29;;
58303;Laerm;44109;52.398;7.024;2022-11-22T11:55:24;49.18;40.80;62.37;;
58303;Laerm;44109;52.398;7.024;2022-11-22T11:57:56;50.92;40.66;66.10;;
58303;Laerm;44109;52.398;7.024;2022-11-22T12:00:27;50.84;40.25;68.74;;
58303;Laerm;44109;52.398;7.024;2022-11-22T12:03:07;50.78;40.03;71.88;;
58303;Laerm;44109;52.398;7.024;2022-11-22T12:05:38;49.63;41.13;63.10;;
58303;Laerm;44109;52.398;7.024;2022-11-22T12:08:28;47.80;36.57;58.30;;
58303;Laerm;44109;52.398;7.024;2022-11-22T12:11:01;53.46;37.64;76.00;;
58303;Laerm;44109;52.398;7.024;2022-11-22T12:13:37;50.41;40.53;69.56;;
58303;Laerm;44109;52.398;7.024;2022-11-22T12:16:19;49.93;39.24;67.32;;
58303;Laerm;44109;52.398;7.024;2022-11-22T12:18:56;50.80;42.25;59.27;;
58303;Laerm;44109;52.398;7.024;2022-11-22T12:21:38;50.01;41.83;60.77;;
58303;Laerm;44109;52.398;7.024;2022-11-22T12:24:15;49.03;38.51;59.72;;
58303;Laerm;44109;52.398;7.024;2022-11-22T12:26:44;50.52;39.98;72.67;;
58303;Laerm;44109;52.398;7.024;2022-11-22T12:29:13;50.71;38.98;69.51;;
58303;Laerm;44109;52.398;7.024;2022-11-22T12:31:48;50.08;39.24;62.76;;
58303;Laerm;44109;52.398;7.024;2022-11-22T12:34:25;50.93;43.31;65.14;;
58303;Laerm;44109;52.398;7.024;2022-11-22T12:37:02;49.74;42.15;63.85;;
58303;Laerm;44109;52.398;7.024;2022-11-22T12:39:35;51.76;42.26;76.43;;
58303;Laerm;44109;52.398;7.024;2022-11-22T12:42:10;54.06;40.61;77.28;;
58303;Laerm;44109;52.398;7.024;2022-11-22T12:44:49;50.96;41.98;68.03;;
58303;Laerm;44109;52.398;7.024;2022-11-22T12:47:22;52.24;44.29;79.39;;
58303;Laerm;44109;52.398;7.024;2022-11-22T12:49:58;49.36;41.53;64.78;;
58303;Laerm;44109;52.398;7.024;2022-11-22T12:52:37;50.65;38.68;61.41;;
58303;Laerm;44109;52.398;7.024;2022-11-22T12:55:16;49.97;42.42;58.17;;
58303;Laerm;44109;52.398;7.024;2022-11-22T12:57:49;49.03;41.56;58.25;;
58303;Laerm;44109;52.398;7.024;2022-11-22T13:00:21;48.64;40.15;62.68;;
58303;Laerm;44109;52.398;7.024;2022-11-22T13:02:59;49.81;41.88;64.70;;
58303;Laerm;44109;52.398;7.024;2022-11-22T13:05:39;49.42;40.73;57.94;;
58303;Laerm;44109;52.398;7.024;2022-11-22T13:08:16;49.36;42.04;57.85;;
58303;Laerm;44109;52.398;7.024;2022-11-22T13:10:52;49.02;38.91;60.80;;
58303;Laerm;44109;52.398;7.024;2022-11-22T13:13:26;49.68;42.05;57.85;;
58303;Laerm;44109;52.398;7.024;2022-11-22T13:15:59;49.81;38.43;61.50;;
58303;Laerm;44109;52.398;7.024;2022-11-22T13:18:32;51.69;41.04;64.30;;
58303;Laerm;44109;52.398;7.024;2022-11-22T13:21:11;49.37;41.87;58.85;;
58303;Laerm;44109;52.398;7.024;2022-11-22T13:24:01;51.70;42.90;72.80;;
58303;Laerm;44109;52.398;7.024;2022-11-22T13:26:48;50.14;42.12;62.21;;
58303;Laerm;44109;52.398;7.024;2022-11-22T13:29:21;49.98;41.92;61.93;;
58303;Laerm;44109;52.398;7.024;2022-11-22T13:32:03;49.82;41.75;70.34;;
58303;Laerm;44109;52.398;7.024;2022-11-22T13:34:33;50.92;41.15;67.46;;
58303;Laerm;44109;52.398;7.024;2022-11-22T13:37:10;50.19;40.37;59.67;;
58303;Laerm;44109;52.398;7.024;2022-11-22T13:39:43;51.99;45.32;61.59;;
58303;Laerm;44109;52.398;7.024;2022-11-22T13:42:17;50.31;42.58;58.33;;
58303;Laerm;44109;52.398;7.024;2022-11-22T13:45:06;49.11;43.09;61.12;;
58303;Laerm;44109;52.398;7.024;2022-11-22T13:47:41;49.85;40.75;58.86;;
58303;Laerm;44109;52.398;7.024;2022-11-22T13:51:00;51.12;41.18;61.67;;
58303;Laerm;44109;52.398;7.024;2022-11-22T13:53:33;51.84;44.86;61.25;;
58303;Laerm;44109;52.398;7.024;2022-11-22T13:56:47;50.85;40.35;67.43;;
58303;Laerm;44109;52.398;7.024;2022-11-22T13:59:23;50.50;44.57;58.16;;
58303;Laerm;44109;52.398;7.024;2022-11-22T14:01:58;50.72;43.61;60.09;;
58303;Laerm;44109;52.398;7.024;2022-11-22T14:04:37;49.76;43.04;60.59;;
58303;Laerm;44109;52.398;7.024;2022-11-22T14:07:25;50.01;42.25;58.09;;
58303;Laerm;44109;52.398;7.024;2022-11-22T14:09:59;52.08;42.66;77.85;;